sensor_id;sensor_type;location;lat;lon;timestamp;temperature;humidity
73780;SHT30;62093;37.614;15.072;2024-02-21T00:01:07;16.84;61.91
73780;SHT30;62093;37.614;15.072;2024-02-21T00:03:33;16.83;61.86
73780;SHT30;62093;37.614;15.072;2024-02-21T00:05:59;16.81;61.95
73780;SHT30;62093;37.614;15.072;2024-02-21T00:08:25;16.81;62.01
73780;SHT30;62093;37.614;15.072;2024-02-21T00:10:51;16.77;62.06
73780;SHT30;62093;37.614;15.072;2024-02-21T00:13:17;16.80;61.91
73780;SHT30;62093;37.614;15.072;2024-02-21T00:15:43;16.79;62.24
73780;SHT30;62093;37.614;15.072;2024-02-21T00:18:09;16.74;62.29
73780;SHT30;62093;37.614;15.072;2024-02-21T00:20:36;16.77;62.18
73780;SHT30;62093;37.614;15.072;2024-02-21T00:23:02;16.74;62.25
73780;SHT30;62093;37.614;15.072;2024-02-21T00:25:29;16.73;62.32
73780;SHT30;62093;37.614;15.072;2024-02-21T00:27:55;16.74;62.25
73780;SHT30;62093;37.614;15.072;2024-02-21T00:30:21;16.69;62.32
73780;SHT30;62093;37.614;15.072;2024-02-21T00:32:47;16.72;62.26
73780;SHT30;62093;37.614;15.072;2024-02-21T00:35:14;16.72;62.12
73780;SHT30;62093;37.614;15.072;2024-02-21T00:37:40;16.69;62.14
73780;SHT30;62093;37.614;15.072;2024-02-21T00:40:06;16.72;62.26
73780;SHT30;62093;37.614;15.072;2024-02-21T00:42:32;16.66;62.15
73780;SHT30;62093;37.614;15.072;2024-02-21T00:44:58;16.66;62.27
73780;SHT30;62093;37.614;15.072;2024-02-21T00:47:25;16.66;62.27
73780;SHT30;62093;37.614;15.072;2024-02-21T00:49:51;16.64;62.30
73780;SHT30;62093;37.614;15.072;2024-02-21T00:52:17;16.69;62.37
73780;SHT30;62093;37.614;15.072;2024-02-21T00:54:43;16.67;62.26
73780;SHT30;62093;37.614;15.072;2024-02-21T00:57:09;16.66;62.14
73780;SHT30;62093;37.614;15.072;2024-02-21T00:59:35;16.64;62.34
73780;SHT30;62093;37.614;15.072;2024-02-21T01:02:01;16.64;62.39
73780;SHT30;62093;37.614;15.072;2024-02-21T01:04:27;16.67;62.13
73780;SHT30;62093;37.614;15.072;2024-02-21T01:06:53;16.64;62.03
73780;SHT30;62093;37.614;15.072;2024-02-21T01:09:19;16.62;62.40
73780;SHT30;62093;37.614;15.072;2024-02-21T01:11:45;16.62;62.12
73780;SHT30;62093;37.614;15.072;2024-02-21T01:14:11;16.62;62.21
73780;SHT30;62093;37.614;15.072;2024-02-21T01:16:37;16.62;62.17
73780;SHT30;62093;37.614;15.072;2024-02-21T01:19:03;16.64;61.82
73780;SHT30;62093;37.614;15.072;2024-02-21T01:21:29;16.60;61.76
73780;SHT30;62093;37.614;15.072;2024-02-21T01:23:56;16.59;62.28
73780;SHT30;62093;37.614;15.072;2024-02-21T01:26:22;16.59;62.16
73780;SHT30;62093;37.614;15.072;2024-02-21T01:28:48;16.57;62.26
73780;SHT30;62093;37.614;15.072;2024-02-21T01:31:14;16.57;62.27
73780;SHT30;62093;37.614;15.072;2024-02-21T01:33:40;16.57;61.76
73780;SHT30;62093;37.614;15.072;2024-02-21T01:36:07;16.57;61.88
73780;SHT30;62093;37.614;15.072;2024-02-21T01:38:33;16.55;62.22
73780;SHT30;62093;37.614;15.072;2024-02-21T01:40:59;16.59;61.79
73780;SHT30;62093;37.614;15.072;2024-02-21T01:43:24;16.62;61.82
73780;SHT30;62093;37.614;15.072;2024-02-21T01:45:53;16.56;61.84
73780;SHT30;62093;37.614;15.072;2024-02-21T01:48:22;16.56;61.70
73780;SHT30;62093;37.614;15.072;2024-02-21T01:50:49;16.53;62.02
73780;SHT30;62093;37.614;15.072;2024-02-21T01:53:21;16.53;61.84
73780;SHT30;62093;37.614;15.072;2024-02-21T01:55:49;16.53;61.89
73780;SHT30;62093;37.614;15.072;2024-02-21T01:58:16;16.55;61.68
73780;SHT30;62093;37.614;15.072;2024-02-21T02:00:43;16.55;61.31
73780;SHT30;62093;37.614;15.072;2024-02-21T02:03:13;16.55;61.97
73780;SHT30;62093;37.614;15.072;2024-02-21T02:05:49;16.52;61.79
73780;SHT30;62093;37.614;15.072;2024-02-21T02:08:16;16.53;61.92
73780;SHT30;62093;37.614;15.072;2024-02-21T02:10:43;16.55;61.75
73780;SHT30;62093;37.614;15.072;2024-02-21T02:13:10;16.59;61.88
73780;SHT30;62093;37.614;15.072;2024-02-21T02:15:43;16.55;61.66
73780;SHT30;62093;37.614;15.072;2024-02-21T02:18:10;16.51;61.85
73780;SHT30;62093;37.614;15.072;2024-02-21T02:20:36;16.51;61.96
73780;SHT30;62093;37.614;15.072;2024-02-21T02:25:47;16.51;61.79
73780;SHT30;62093;37.614;15.072;2024-02-21T02:28:18;16.51;61.79
73780;SHT30;62093;37.614;15.072;2024-02-21T02:30:44;16.53;61.90
73780;SHT30;62093;37.614;15.072;2024-02-21T02:33:10;16.51;61.80
73780;SHT30;62093;37.614;15.072;2024-02-21T02:35:36;16.46;61.89
73780;SHT30;62093;37.614;15.072;2024-02-21T02:38:03;16.51;61.41
73780;SHT30;62093;37.614;15.072;2024-02-21T02:40:30;16.53;62.17
73780;SHT30;62093;37.614;15.072;2024-02-21T02:42:56;16.51;61.83
73780;SHT30;62093;37.614;15.072;2024-02-21T02:45:24;16.55;61.68
73780;SHT30;62093;37.614;15.072;2024-02-21T02:47:55;16.55;61.48
73780;SHT30;62093;37.614;15.072;2024-02-21T02:50:26;16.49;61.13
73780;SHT30;62093;37.614;15.072;2024-02-21T02:52:53;16.55;61.19
73780;SHT30;62093;37.614;15.072;2024-02-21T02:55:19;16.51;61.54
73780;SHT30;62093;37.614;15.072;2024-02-21T02:57:45;16.52;61.12
73780;SHT30;62093;37.614;15.072;2024-02-21T03:00:13;16.53;61.57
73780;SHT30;62093;37.614;15.072;2024-02-21T03:02:40;16.53;61.49
73780;SHT30;62093;37.614;15.072;2024-02-21T03:05:14;16.52;60.97
73780;SHT30;62093;37.614;15.072;2024-02-21T03:07:41;16.51;61.72
73780;SHT30;62093;37.614;15.072;2024-02-21T03:10:08;16.52;61.00
73780;SHT30;62093;37.614;15.072;2024-02-21T03:12:34;16.46;61.43
73780;SHT30;62093;37.614;15.072;2024-02-21T03:15:01;16.46;61.26
73780;SHT30;62093;37.614;15.072;2024-02-21T03:17:27;16.48;61.26
73780;SHT30;62093;37.614;15.072;2024-02-21T03:19:54;16.43;61.32
73780;SHT30;62093;37.614;15.072;2024-02-21T03:22:22;16.45;61.35
73780;SHT30;62093;37.614;15.072;2024-02-21T03:24:47;16.46;61.28
73780;SHT30;62093;37.614;15.072;2024-02-21T03:27:14;16.48;61.12
73780;SHT30;62093;37.614;15.072;2024-02-21T03:29:39;16.45;61.38
73780;SHT30;62093;37.614;15.072;2024-02-21T03:32:05;16.43;61.32
73780;SHT30;62093;37.614;15.072;2024-02-21T03:34:31;16.43;61.09
73780;SHT30;62093;37.614;15.072;2024-02-21T03:36:57;16.42;61.57
73780;SHT30;62093;37.614;15.072;2024-02-21T03:39:24;16.41;61.76
73780;SHT30;62093;37.614;15.072;2024-02-21T03:41:50;16.43;61.55
73780;SHT30;62093;37.614;15.072;2024-02-21T03:44:17;16.38;61.47
73780;SHT30;62093;37.614;15.072;2024-02-21T03:46:43;16.39;61.45
73780;SHT30;62093;37.614;15.072;2024-02-21T03:49:09;16.39;61.47
73780;SHT30;62093;37.614;15.072;2024-02-21T03:51:34;16.41;61.30
73780;SHT30;62093;37.614;15.072;2024-02-21T03:54:01;16.42;61.38
73780;SHT30;62093;37.614;15.072;2024-02-21T03:56:27;16.39;61.43
73780;SHT30;62093;37.614;15.072;2024-02-21T03:58:53;16.38;61.67
73780;SHT30;62093;37.614;15.072;2024-02-21T04:01:19;16.38;61.37
73780;SHT30;62093;37.614;15.072;2024-02-21T04:03:45;16.38;61.60
73780;SHT30;62093;37.614;15.072;2024-02-21T04:06:11;16.39;61.60
73780;SHT30;62093;37.614;15.072;2024-02-21T04:08:38;16.38;61.51
73780;SHT30;62093;37.614;15.072;2024-02-21T04:11:04;16.41;61.73
73780;SHT30;62093;37.614;15.072;2024-02-21T04:13:30;16.43;61.34
73780;SHT30;62093;37.614;15.072;2024-02-21T04:15:56;16.43;61.50
73780;SHT30;62093;37.614;15.072;2024-02-21T04:18:22;16.43;61.67
73780;SHT30;62093;37.614;15.072;2024-02-21T04:20:52;16.49;61.25
73780;SHT30;62093;37.614;15.072;2024-02-21T04:23:18;16.49;61.28
73780;SHT30;62093;37.614;15.072;2024-02-21T04:25:44;16.52;61.36
73780;SHT30;62093;37.614;15.072;2024-02-21T04:28:10;16.46;61.47
73780;SHT30;62093;37.614;15.072;2024-02-21T04:30:36;16.51;61.50
73780;SHT30;62093;37.614;15.072;2024-02-21T04:33:02;16.51;61.54
73780;SHT30;62093;37.614;15.072;2024-02-21T04:35:28;16.48;61.59
73780;SHT30;62093;37.614;15.072;2024-02-21T04:37:54;16.48;61.15
73780;SHT30;62093;37.614;15.072;2024-02-21T04:40:20;16.49;61.58
73780;SHT30;62093;37.614;15.072;2024-02-21T04:42:46;16.48;61.54
73780;SHT30;62093;37.614;15.072;2024-02-21T04:45:13;16.45;61.36
73780;SHT30;62093;37.614;15.072;2024-02-21T04:47:39;16.46;61.59
73780;SHT30;62093;37.614;15.072;2024-02-21T04:50:05;16.45;61.63
73780;SHT30;62093;37.614;15.072;2024-02-21T04:52:31;16.46;61.65
73780;SHT30;62093;37.614;15.072;2024-02-21T04:54:57;16.48;61.55
73780;SHT30;62093;37.614;15.072;2024-02-21T04:57:23;16.46;61.57
73780;SHT30;62093;37.614;15.072;2024-02-21T04:59:49;16.48;61.56
73780;SHT30;62093;37.614;15.072;2024-02-21T05:02:14;16.46;61.65
73780;SHT30;62093;37.614;15.072;2024-02-21T05:04:42;16.45;61.17
73780;SHT30;62093;37.614;15.072;2024-02-21T05:07:08;16.46;60.99
73780;SHT30;62093;37.614;15.072;2024-02-21T05:09:34;16.45;61.21
73780;SHT30;62093;37.614;15.072;2024-02-21T05:12:00;16.43;61.30
73780;SHT30;62093;37.614;15.072;2024-02-21T05:14:26;16.46;61.30
73780;SHT30;62093;37.614;15.072;2024-02-21T05:16:55;16.46;61.20
73780;SHT30;62093;37.614;15.072;2024-02-21T05:19:21;16.48;61.22
73780;SHT30;62093;37.614;15.072;2024-02-21T05:21:47;16.45;60.83
73780;SHT30;62093;37.614;15.072;2024-02-21T05:24:13;16.43;61.41
73780;SHT30;62093;37.614;15.072;2024-02-21T05:26:39;16.43;61.03
73780;SHT30;62093;37.614;15.072;2024-02-21T05:29:05;16.42;61.35
73780;SHT30;62093;37.614;15.072;2024-02-21T05:34:17;16.49;61.47
73780;SHT30;62093;37.614;15.072;2024-02-21T05:36:43;16.41;61.45
73780;SHT30;62093;37.614;15.072;2024-02-21T05:39:10;16.41;61.43
73780;SHT30;62093;37.614;15.072;2024-02-21T05:41:36;16.36;61.55
73780;SHT30;62093;37.614;15.072;2024-02-21T05:44:02;16.30;61.77
73780;SHT30;62093;37.614;15.072;2024-02-21T05:46:28;16.35;61.65
73780;SHT30;62093;37.614;15.072;2024-02-21T05:48:54;16.33;61.63
73780;SHT30;62093;37.614;15.072;2024-02-21T05:51:20;16.29;61.80
73780;SHT30;62093;37.614;15.072;2024-02-21T05:53:46;16.32;61.59
73780;SHT30;62093;37.614;15.072;2024-02-21T05:56:13;16.32;61.79
73780;SHT30;62093;37.614;15.072;2024-02-21T05:58:40;16.30;61.76
73780;SHT30;62093;37.614;15.072;2024-02-21T06:01:06;16.30;62.04
73780;SHT30;62093;37.614;15.072;2024-02-21T06:03:33;16.32;61.86
73780;SHT30;62093;37.614;15.072;2024-02-21T06:06:00;16.29;61.78
73780;SHT30;62093;37.614;15.072;2024-02-21T06:08:26;16.25;61.99
73780;SHT30;62093;37.614;15.072;2024-02-21T06:10:52;16.26;62.06
73780;SHT30;62093;37.614;15.072;2024-02-21T06:13:26;16.29;61.82
73780;SHT30;62093;37.614;15.072;2024-02-21T06:15:52;16.30;62.01
73780;SHT30;62093;37.614;15.072;2024-02-21T06:18:19;16.23;62.17
73780;SHT30;62093;37.614;15.072;2024-02-21T06:20:46;16.25;62.14
73780;SHT30;62093;37.614;15.072;2024-02-21T06:23:21;16.25;62.13
73780;SHT30;62093;37.614;15.072;2024-02-21T06:25:47;16.26;61.92
73780;SHT30;62093;37.614;15.072;2024-02-21T06:28:13;16.25;62.08
73780;SHT30;62093;37.614;15.072;2024-02-21T06:30:40;16.26;61.94
73780;SHT30;62093;37.614;15.072;2024-02-21T06:33:06;16.23;61.87
73780;SHT30;62093;37.614;15.072;2024-02-21T06:35:34;16.23;61.99
73780;SHT30;62093;37.614;15.072;2024-02-21T06:38:00;16.23;62.00
73780;SHT30;62093;37.614;15.072;2024-02-21T06:40:26;16.18;61.79
73780;SHT30;62093;37.614;15.072;2024-02-21T06:42:52;16.16;62.30
73780;SHT30;62093;37.614;15.072;2024-02-21T06:45:18;16.19;61.91
73780;SHT30;62093;37.614;15.072;2024-02-21T06:47:44;16.15;61.98
73780;SHT30;62093;37.614;15.072;2024-02-21T06:50:10;16.21;62.12
73780;SHT30;62093;37.614;15.072;2024-02-21T06:52:36;16.25;61.79
73780;SHT30;62093;37.614;15.072;2024-02-21T06:55:03;16.22;61.50
73780;SHT30;62093;37.614;15.072;2024-02-21T06:57:29;16.22;61.70
73780;SHT30;62093;37.614;15.072;2024-02-21T06:59:55;16.19;61.90
73780;SHT30;62093;37.614;15.072;2024-02-21T07:02:21;16.25;61.74
73780;SHT30;62093;37.614;15.072;2024-02-21T07:04:47;16.26;61.60
73780;SHT30;62093;37.614;15.072;2024-02-21T07:07:13;16.30;61.52
73780;SHT30;62093;37.614;15.072;2024-02-21T07:09:39;16.30;61.60
73780;SHT30;62093;37.614;15.072;2024-02-21T07:12:05;16.28;61.73
73780;SHT30;62093;37.614;15.072;2024-02-21T07:14:35;16.25;61.72
73780;SHT30;62093;37.614;15.072;2024-02-21T07:17:01;16.26;61.83
73780;SHT30;62093;37.614;15.072;2024-02-21T07:19:27;16.25;61.91
73780;SHT30;62093;37.614;15.072;2024-02-21T07:21:54;16.28;61.75
73780;SHT30;62093;37.614;15.072;2024-02-21T07:24:19;16.28;62.03
73780;SHT30;62093;37.614;15.072;2024-02-21T07:26:45;16.26;61.68
73780;SHT30;62093;37.614;15.072;2024-02-21T07:29:11;16.21;61.89
73780;SHT30;62093;37.614;15.072;2024-02-21T07:31:41;16.19;62.08
73780;SHT30;62093;37.614;15.072;2024-02-21T07:34:08;16.15;61.95
73780;SHT30;62093;37.614;15.072;2024-02-21T07:36:34;16.16;61.98
73780;SHT30;62093;37.614;15.072;2024-02-21T07:39:00;16.19;61.86
73780;SHT30;62093;37.614;15.072;2024-02-21T07:41:26;16.13;61.76
73780;SHT30;62093;37.614;15.072;2024-02-21T07:43:55;16.15;62.32
73780;SHT30;62093;37.614;15.072;2024-02-21T07:46:21;16.09;62.09
73780;SHT30;62093;37.614;15.072;2024-02-21T07:48:48;16.13;62.17
73780;SHT30;62093;37.614;15.072;2024-02-21T07:51:14;16.11;62.00
73780;SHT30;62093;37.614;15.072;2024-02-21T07:53:45;16.12;61.88
73780;SHT30;62093;37.614;15.072;2024-02-21T07:56:12;16.13;61.90
73780;SHT30;62093;37.614;15.072;2024-02-21T07:58:38;16.12;61.81
73780;SHT30;62093;37.614;15.072;2024-02-21T08:01:04;16.12;62.13
73780;SHT30;62093;37.614;15.072;2024-02-21T08:03:30;16.12;62.06
73780;SHT30;62093;37.614;15.072;2024-02-21T08:05:56;16.12;61.93
73780;SHT30;62093;37.614;15.072;2024-02-21T08:08:22;16.12;61.78
73780;SHT30;62093;37.614;15.072;2024-02-21T08:10:48;16.09;61.87
73780;SHT30;62093;37.614;15.072;2024-02-21T08:13:14;16.09;62.09
73780;SHT30;62093;37.614;15.072;2024-02-21T08:15:41;16.11;61.95
73780;SHT30;62093;37.614;15.072;2024-02-21T08:18:07;16.13;62.13
73780;SHT30;62093;37.614;15.072;2024-02-21T08:20:34;16.15;61.70
73780;SHT30;62093;37.614;15.072;2024-02-21T08:23:00;16.13;61.70
73780;SHT30;62093;37.614;15.072;2024-02-21T08:25:26;16.11;61.81
73780;SHT30;62093;37.614;15.072;2024-02-21T08:27:57;16.09;61.82
73780;SHT30;62093;37.614;15.072;2024-02-21T08:30:24;16.11;61.79
73780;SHT30;62093;37.614;15.072;2024-02-21T08:32:50;16.13;61.64
73780;SHT30;62093;37.614;15.072;2024-02-21T08:35:16;16.19;61.95
73780;SHT30;62093;37.614;15.072;2024-02-21T08:37:44;16.23;61.48
73780;SHT30;62093;37.614;15.072;2024-02-21T08:40:12;16.26;61.37
73780;SHT30;62093;37.614;15.072;2024-02-21T08:42:39;16.26;61.68
73780;SHT30;62093;37.614;15.072;2024-02-21T08:45:05;16.26;61.52
73780;SHT30;62093;37.614;15.072;2024-02-21T08:47:31;16.21;61.77
73780;SHT30;62093;37.614;15.072;2024-02-21T08:49:57;16.28;61.80
73780;SHT30;62093;37.614;15.072;2024-02-21T08:52:23;16.29;61.18
73780;SHT30;62093;37.614;15.072;2024-02-21T08:54:49;16.32;61.30
73780;SHT30;62093;37.614;15.072;2024-02-21T08:57:16;16.33;61.32
73780;SHT30;62093;37.614;15.072;2024-02-21T08:59:44;16.29;61.03
73780;SHT30;62093;37.614;15.072;2024-02-21T09:02:10;16.33;61.25
73780;SHT30;62093;37.614;15.072;2024-02-21T09:04:36;16.39;61.10
73780;SHT30;62093;37.614;15.072;2024-02-21T09:07:02;16.33;61.16
73780;SHT30;62093;37.614;15.072;2024-02-21T09:09:28;16.28;61.47
73780;SHT30;62093;37.614;15.072;2024-02-21T09:11:55;16.32;61.52
73780;SHT30;62093;37.614;15.072;2024-02-21T09:14:21;16.28;61.92
73780;SHT30;62093;37.614;15.072;2024-02-21T09:16:48;16.36;61.61
73780;SHT30;62093;37.614;15.072;2024-02-21T09:19:14;16.35;61.49
73780;SHT30;62093;37.614;15.072;2024-02-21T09:21:40;16.38;61.57
73780;SHT30;62093;37.614;15.072;2024-02-21T09:24:06;16.38;61.38
73780;SHT30;62093;37.614;15.072;2024-02-21T09:26:32;16.41;61.40
73780;SHT30;62093;37.614;15.072;2024-02-21T09:28:59;16.33;61.72
73780;SHT30;62093;37.614;15.072;2024-02-21T09:31:25;16.43;61.25
73780;SHT30;62093;37.614;15.072;2024-02-21T09:33:51;16.35;61.59
73780;SHT30;62093;37.614;15.072;2024-02-21T09:36:17;16.33;61.43
73780;SHT30;62093;37.614;15.072;2024-02-21T09:38:43;16.38;61.95
73780;SHT30;62093;37.614;15.072;2024-02-21T09:43:37;16.43;61.57
73780;SHT30;62093;37.614;15.072;2024-02-21T09:46:06;16.45;61.69
73780;SHT30;62093;37.614;15.072;2024-02-21T09:51:09;16.49;61.62
73780;SHT30;62093;37.614;15.072;2024-02-21T09:53:38;16.42;61.65
73780;SHT30;62093;37.614;15.072;2024-02-21T09:56:07;16.45;61.43
73780;SHT30;62093;37.614;15.072;2024-02-21T09:58:34;16.39;61.85
73780;SHT30;62093;37.614;15.072;2024-02-21T10:01:00;16.43;61.77
73780;SHT30;62093;37.614;15.072;2024-02-21T10:03:26;16.41;61.70
73780;SHT30;62093;37.614;15.072;2024-02-21T10:05:53;16.39;61.64
73780;SHT30;62093;37.614;15.072;2024-02-21T10:08:20;16.33;61.61
73780;SHT30;62093;37.614;15.072;2024-02-21T10:10:46;16.35;61.62
73780;SHT30;62093;37.614;15.072;2024-02-21T10:13:26;16.30;61.67
73780;SHT30;62093;37.614;15.072;2024-02-21T10:16:07;16.35;61.92
73780;SHT30;62093;37.614;15.072;2024-02-21T10:18:34;16.33;61.83
73780;SHT30;62093;37.614;15.072;2024-02-21T10:21:07;16.30;62.11
73780;SHT30;62093;37.614;15.072;2024-02-21T10:23:49;16.33;61.82
73780;SHT30;62093;37.614;15.072;2024-02-21T10:26:16;16.30;61.97
73780;SHT30;62093;37.614;15.072;2024-02-21T10:28:42;16.35;61.92
73780;SHT30;62093;37.614;15.072;2024-02-21T10:31:26;16.30;61.70
73780;SHT30;62093;37.614;15.072;2024-02-21T10:34:02;16.26;62.00
73780;SHT30;62093;37.614;15.072;2024-02-21T10:36:31;16.29;61.95
73780;SHT30;62093;37.614;15.072;2024-02-21T10:38:57;16.29;62.01
73780;SHT30;62093;37.614;15.072;2024-02-21T10:41:24;16.33;61.96
73780;SHT30;62093;37.614;15.072;2024-02-21T10:43:54;16.30;61.75
73780;SHT30;62093;37.614;15.072;2024-02-21T10:46:22;16.33;61.84
73780;SHT30;62093;37.614;15.072;2024-02-21T10:49:01;16.30;62.00
73780;SHT30;62093;37.614;15.072;2024-02-21T10:51:33;16.33;61.86
73780;SHT30;62093;37.614;15.072;2024-02-21T10:56:45;16.28;61.94
73780;SHT30;62093;37.614;15.072;2024-02-21T10:59:13;16.29;61.88
73780;SHT30;62093;37.614;15.072;2024-02-21T11:01:39;16.29;61.63
73780;SHT30;62093;37.614;15.072;2024-02-21T11:04:07;16.26;62.07
73780;SHT30;62093;37.614;15.072;2024-02-21T11:06:38;16.25;62.03
73780;SHT30;62093;37.614;15.072;2024-02-21T11:09:10;16.29;62.07
73780;SHT30;62093;37.614;15.072;2024-02-21T11:11:38;16.29;61.76
73780;SHT30;62093;37.614;15.072;2024-02-21T11:14:22;16.32;61.95
73780;SHT30;62093;37.614;15.072;2024-02-21T11:16:48;16.28;61.98
73780;SHT30;62093;37.614;15.072;2024-02-21T11:19:24;16.28;61.89
73780;SHT30;62093;37.614;15.072;2024-02-21T11:21:51;16.30;62.08
73780;SHT30;62093;37.614;15.072;2024-02-21T11:24:33;16.25;62.10
73780;SHT30;62093;37.614;15.072;2024-02-21T11:27:11;16.26;62.02
73780;SHT30;62093;37.614;15.072;2024-02-21T11:29:48;16.29;61.93
73780;SHT30;62093;37.614;15.072;2024-02-21T11:32:20;16.28;61.93
73780;SHT30;62093;37.614;15.072;2024-02-21T11:35:01;16.28;61.97
73780;SHT30;62093;37.614;15.072;2024-02-21T11:37:32;16.29;62.00
73780;SHT30;62093;37.614;15.072;2024-02-21T11:40:05;16.28;61.97
73780;SHT30;62093;37.614;15.072;2024-02-21T11:42:35;16.29;61.95
73780;SHT30;62093;37.614;15.072;2024-02-21T11:45:01;16.28;61.92
73780;SHT30;62093;37.614;15.072;2024-02-21T11:47:28;16.32;61.92
73780;SHT30;62093;37.614;15.072;2024-02-21T11:49:54;16.30;61.89
73780;SHT30;62093;37.614;15.072;2024-02-21T11:52:25;16.28;61.92
73780;SHT30;62093;37.614;15.072;2024-02-21T11:54:51;16.32;61.89
73780;SHT30;62093;37.614;15.072;2024-02-21T11:57:22;16.33;61.65
73780;SHT30;62093;37.614;15.072;2024-02-21T11:59:48;16.28;62.00
73780;SHT30;62093;37.614;15.072;2024-02-21T12:02:17;16.29;61.87
73780;SHT30;62093;37.614;15.072;2024-02-21T12:04:44;16.29;61.84
73780;SHT30;62093;37.614;15.072;2024-02-21T12:07:10;16.29;61.87
73780;SHT30;62093;37.614;15.072;2024-02-21T12:09:36;16.29;61.85
73780;SHT30;62093;37.614;15.072;2024-02-21T12:12:03;16.28;61.85
73780;SHT30;62093;37.614;15.072;2024-02-21T12:14:32;16.29;61.85
73780;SHT30;62093;37.614;15.072;2024-02-21T12:16:59;16.32;61.83
73780;SHT30;62093;37.614;15.072;2024-02-21T12:19:26;16.33;61.80
73780;SHT30;62093;37.614;15.072;2024-02-21T12:21:53;16.35;61.80
73780;SHT30;62093;37.614;15.072;2024-02-21T12:24:25;16.30;61.81
73780;SHT30;62093;37.614;15.072;2024-02-21T12:26:51;16.42;61.61
73780;SHT30;62093;37.614;15.072;2024-02-21T12:29:20;16.36;61.61
73780;SHT30;62093;37.614;15.072;2024-02-21T12:31:47;16.36;61.69
73780;SHT30;62093;37.614;15.072;2024-02-21T12:34:13;16.35;61.69
73780;SHT30;62093;37.614;15.072;2024-02-21T12:36:43;16.39;61.63
73780;SHT30;62093;37.614;15.072;2024-02-21T12:39:10;16.41;61.53
73780;SHT30;62093;37.614;15.072;2024-02-21T12:41:37;16.41;61.49
73780;SHT30;62093;37.614;15.072;2024-02-21T12:44:07;16.43;61.56
73780;SHT30;62093;37.614;15.072;2024-02-21T12:46:34;16.46;61.25
73780;SHT30;62093;37.614;15.072;2024-02-21T12:49:00;16.46;61.36
73780;SHT30;62093;37.614;15.072;2024-02-21T12:51:26;16.48;61.06
73780;SHT30;62093;37.614;15.072;2024-02-21T12:53:53;16.48;61.25
73780;SHT30;62093;37.614;15.072;2024-02-21T12:56:19;16.46;61.38
73780;SHT30;62093;37.614;15.072;2024-02-21T12:58:44;16.48;61.27
73780;SHT30;62093;37.614;15.072;2024-02-21T13:01:11;16.49;61.26
73780;SHT30;62093;37.614;15.072;2024-02-21T13:03:37;16.53;60.95
73780;SHT30;62093;37.614;15.072;2024-02-21T13:06:04;16.52;61.10
73780;SHT30;62093;37.614;15.072;2024-02-21T13:08:30;16.51;61.07
73780;SHT30;62093;37.614;15.072;2024-02-21T13:10:57;16.49;61.04
73780;SHT30;62093;37.614;15.072;2024-02-21T13:13:22;16.52;61.03
73780;SHT30;62093;37.614;15.072;2024-02-21T13:15:49;16.53;60.85
73780;SHT30;62093;37.614;15.072;2024-02-21T13:18:15;16.48;61.09
73780;SHT30;62093;37.614;15.072;2024-02-21T13:20:41;16.48;61.12
73780;SHT30;62093;37.614;15.072;2024-02-21T13:23:07;16.51;61.06
73780;SHT30;62093;37.614;15.072;2024-02-21T13:25:33;16.51;61.15
73780;SHT30;62093;37.614;15.072;2024-02-21T13:28:00;16.49;60.95
73780;SHT30;62093;37.614;15.072;2024-02-21T13:30:27;16.49;61.03
73780;SHT30;62093;37.614;15.072;2024-02-21T13:32:55;16.46;61.21
73780;SHT30;62093;37.614;15.072;2024-02-21T13:35:21;16.49;61.10
73780;SHT30;62093;37.614;15.072;2024-02-21T13:37:47;16.51;60.97
73780;SHT30;62093;37.614;15.072;2024-02-21T13:40:13;16.49;61.19
73780;SHT30;62093;37.614;15.072;2024-02-21T13:42:39;16.52;61.00
73780;SHT30;62093;37.614;15.072;2024-02-21T13:45:06;16.51;61.03
73780;SHT30;62093;37.614;15.072;2024-02-21T13:47:33;16.51;61.02
73780;SHT30;62093;37.614;15.072;2024-02-21T13:49:59;16.48;60.88
73780;SHT30;62093;37.614;15.072;2024-02-21T13:52:25;16.51;61.02
73780;SHT30;62093;37.614;15.072;2024-02-21T13:54:52;16.49;61.07
73780;SHT30;62093;37.614;15.072;2024-02-21T13:57:18;16.51;61.13
73780;SHT30;62093;37.614;15.072;2024-02-21T13:59:44;16.51;61.01
73780;SHT30;62093;37.614;15.072;2024-02-21T14:02:10;16.46;61.02
73780;SHT30;62093;37.614;15.072;2024-02-21T14:04:36;16.48;61.01
73780;SHT30;62093;37.614;15.072;2024-02-21T14:07:02;16.52;60.90
73780;SHT30;62093;37.614;15.072;2024-02-21T14:09:28;16.51;60.98
73780;SHT30;62093;37.614;15.072;2024-02-21T14:11:58;16.52;61.05
73780;SHT30;62093;37.614;15.072;2024-02-21T14:14:26;16.56;60.90
73780;SHT30;62093;37.614;15.072;2024-02-21T14:16:52;16.60;60.71
73780;SHT30;62093;37.614;15.072;2024-02-21T14:19:19;16.57;60.73
73780;SHT30;62093;37.614;15.072;2024-02-21T14:21:45;16.52;60.98
73780;SHT30;62093;37.614;15.072;2024-02-21T14:24:11;16.56;60.70
73780;SHT30;62093;37.614;15.072;2024-02-21T14:26:38;16.57;60.86
73780;SHT30;62093;37.614;15.072;2024-02-21T14:29:07;16.51;60.70
73780;SHT30;62093;37.614;15.072;2024-02-21T14:31:34;16.51;61.03
73780;SHT30;62093;37.614;15.072;2024-02-21T14:34:01;16.55;60.86
73780;SHT30;62093;37.614;15.072;2024-02-21T14:36:29;16.53;60.55
73780;SHT30;62093;37.614;15.072;2024-02-21T14:38:55;16.53;61.02
73780;SHT30;62093;37.614;15.072;2024-02-21T14:41:22;16.57;60.85
73780;SHT30;62093;37.614;15.072;2024-02-21T14:43:50;16.52;60.85
73780;SHT30;62093;37.614;15.072;2024-02-21T14:46:17;16.57;60.92
73780;SHT30;62093;37.614;15.072;2024-02-21T14:48:43;16.52;60.74
73780;SHT30;62093;37.614;15.072;2024-02-21T14:51:11;16.52;60.90
73780;SHT30;62093;37.614;15.072;2024-02-21T14:53:38;16.51;60.65
73780;SHT30;62093;37.614;15.072;2024-02-21T14:56:05;16.57;60.73
73780;SHT30;62093;37.614;15.072;2024-02-21T14:58:32;16.52;60.70
73780;SHT30;62093;37.614;15.072;2024-02-21T15:00:58;16.53;60.79
73780;SHT30;62093;37.614;15.072;2024-02-21T15:03:25;16.49;60.86
73780;SHT30;62093;37.614;15.072;2024-02-21T15:05:53;16.52;60.90
73780;SHT30;62093;37.614;15.072;2024-02-21T15:08:19;16.52;60.70
73780;SHT30;62093;37.614;15.072;2024-02-21T15:10:45;16.52;60.85
73780;SHT30;62093;37.614;15.072;2024-02-21T15:13:12;16.53;60.65
73780;SHT30;62093;37.614;15.072;2024-02-21T15:15:39;16.55;60.63
73780;SHT30;62093;37.614;15.072;2024-02-21T15:18:05;16.56;60.58
73780;SHT30;62093;37.614;15.072;2024-02-21T15:20:32;16.67;60.61
73780;SHT30;62093;37.614;15.072;2024-02-21T15:22:58;16.73;60.66
73780;SHT30;62093;37.614;15.072;2024-02-21T15:25:24;16.81;60.45
73780;SHT30;62093;37.614;15.072;2024-02-21T15:27:51;16.88;60.04